createdAt,value
2022-08-04T00:00:07.908Z,100595.38
2022-08-04T00:02:53.453Z,100596.38
2022-08-04T00:05:47.888Z,100590.03
2022-08-04T00:08:42.238Z,100597.03
2022-08-04T00:11:11.993Z,100593.84
2022-08-04T00:13:58.161Z,100586.44
2022-08-04T00:16:37.871Z,100591.59
2022-08-04T00:19:11.057Z,100592.50
2022-08-04T00:21:39.589Z,100589.50
2022-08-04T00:24:11.344Z,100587.50
2022-08-04T00:26:39.041Z,100593.94
2022-08-04T00:29:05.796Z,100582.06
2022-08-04T00:31:53.655Z,100581.00
2022-08-04T00:34:19.371Z,100582.19
2022-08-04T00:36:45.944Z,100584.25
2022-08-04T00:39:14.082Z,100576.25
2022-08-04T00:41:56.694Z,100578.91
2022-08-04T00:44:35.532Z,100582.16
2022-08-04T00:47:12.284Z,100567.25
2022-08-04T00:49:57.364Z,100570.09
2022-08-04T00:52:32.985Z,100561.16
2022-08-04T00:55:24.395Z,100565.41
2022-08-04T00:58:18.918Z,100562.97
2022-08-04T01:00:58.404Z,100566.16
2022-08-04T01:03:49.653Z,100560.13
2022-08-04T01:06:25.314Z,100563.69
2022-08-04T01:09:21.712Z,100548.09
2022-08-04T01:11:58.689Z,100564.38
2022-08-04T01:14:49.843Z,100559.94
2022-08-04T01:17:38.265Z,100557.50
2022-08-04T01:20:08.551Z,100558.22
2022-08-04T01:22:34.856Z,100555.03
2022-08-04T01:25:10.376Z,100549.28
2022-08-04T01:28:15.905Z,100552.31
2022-08-04T01:30:46.120Z,100551.28
2022-08-04T01:33:17.904Z,100558.34
2022-08-04T01:36:10.451Z,100559.28
2022-08-04T01:38:39.816Z,100545.94
2022-08-04T01:41:08.655Z,100549.38
2022-08-04T01:43:36.279Z,100553.09
2022-08-04T01:46:04.937Z,100552.97
2022-08-04T01:48:32.032Z,100551.50
2022-08-04T01:51:04.376Z,100545.84
2022-08-04T01:53:35.041Z,100541.22
2022-08-04T01:56:02.896Z,100544.97
2022-08-04T01:58:31.593Z,100538.97
2022-08-04T02:01:05.082Z,100537.81
2022-08-04T02:04:21.273Z,100528.38
2022-08-04T02:06:38.630Z,100524.91
2022-08-04T02:09:24.541Z,100527.97
2022-08-04T02:12:03.953Z,100527.19
2022-08-04T02:14:40.970Z,100520.59
2022-08-04T02:17:11.555Z,100518.09
2022-08-04T02:19:58.798Z,100512.28
2022-08-04T02:22:27.245Z,100516.28
2022-08-04T02:25:02.699Z,100512.81
2022-08-04T02:28:00.335Z,100510.75
2022-08-04T02:30:21.121Z,100508.50
2022-08-04T02:32:49.131Z,100501.66
2022-08-04T02:35:25.223Z,100504.06
2022-08-04T02:38:00.393Z,100503.47
2022-08-04T02:40:30.026Z,100492.03
2022-08-04T02:42:57.608Z,100493.84
2022-08-04T02:45:25.553Z,100497.31
2022-08-04T02:48:28.719Z,100495.59
2022-08-04T02:50:41.404Z,100493.47
2022-08-04T02:53:09.884Z,100493.38
2022-08-04T02:55:36.609Z,100489.22
2022-08-04T02:58:04.401Z,100484.72
2022-08-04T03:00:31.198Z,100483.16
2022-08-04T03:03:13.603Z,100467.06
2022-08-04T03:06:11.515Z,100476.41
2022-08-04T03:08:47.053Z,100465.41
2022-08-04T03:11:35.288Z,100473.88
2022-08-04T03:14:26.397Z,100478.88
2022-08-04T03:17:17.079Z,100474.19
2022-08-04T03:20:07.924Z,100481.31
2022-08-04T03:22:34.225Z,100474.41
2022-08-04T03:25:17.870Z,100473.13
2022-08-04T03:28:01.427Z,100469.19
2022-08-04T03:31:04.969Z,100467.28
2022-08-04T03:33:46.501Z,100467.09
2022-08-04T03:36:12.858Z,100460.56
2022-08-04T03:39:16.575Z,100462.06
2022-08-04T03:41:55.118Z,100457.91
2022-08-04T03:44:31.144Z,100459.22
2022-08-04T03:47:18.738Z,100455.19
2022-08-04T03:50:02.920Z,100455.50
2022-08-04T03:53:04.962Z,100466.84
2022-08-04T03:55:49.315Z,100459.34
2022-08-04T03:58:34.176Z,100456.41
2022-08-04T04:01:16.768Z,100463.16
2022-08-04T04:04:02.022Z,100456.97
2022-08-04T04:07:15.070Z,100456.16
2022-08-04T04:10:05.994Z,100464.13
2022-08-04T04:13:16.185Z,100459.41
2022-08-04T04:15:55.739Z,100463.53
2022-08-04T04:18:42.921Z,100452.03
2022-08-04T04:21:28.440Z,100458.50
2022-08-04T04:24:16.640Z,100456.25
2022-08-04T04:26:59.054Z,100457.63
2022-08-04T04:29:50.381Z,100458.56
2022-08-04T04:32:32.585Z,100457.91
2022-08-04T04:35:30.156Z,100460.44
2022-08-04T04:38:29.228Z,100459.31
2022-08-04T04:41:14.524Z,100468.31
2022-08-04T04:43:50.888Z,100468.13
2022-08-04T04:46:30.781Z,100465.50
2022-08-04T04:49:33.533Z,100462.38
2022-08-04T04:52:24.514Z,100460.50
2022-08-04T04:55:00.603Z,100456.97
2022-08-04T04:57:54.715Z,100463.38
2022-08-04T05:00:17.515Z,100467.19
2022-08-04T05:03:42.837Z,100463.69
2022-08-04T05:06:28.306Z,100467.06
2022-08-04T05:09:16.779Z,100464.47
2022-08-04T05:11:57.427Z,100467.16
2022-08-04T05:14:41.192Z,100471.66
2022-08-04T05:17:24.841Z,100466.25
2022-08-04T05:20:04.445Z,100464.47
2022-08-04T05:22:37.680Z,100467.09
2022-08-04T05:25:32.356Z,100466.44
2022-08-04T05:28:15.433Z,100462.69
2022-08-04T05:30:49.658Z,100470.13
2022-08-04T05:33:28.781Z,100456.56
2022-08-04T05:36:21.706Z,100455.13
2022-08-04T05:38:46.346Z,100452.13
2022-08-04T05:41:12.977Z,100449.56
2022-08-04T05:43:43.276Z,100445.03
2022-08-04T05:46:11.066Z,100448.81
2022-08-04T05:48:37.684Z,100453.31
2022-08-04T05:51:05.449Z,100449.28
2022-08-04T05:53:32.475Z,100453.75
2022-08-04T05:55:59.972Z,100456.47
2022-08-04T05:58:29.752Z,100455.06
2022-08-04T06:00:57.213Z,100458.09
2022-08-04T06:03:24.023Z,100448.81
2022-08-04T06:05:51.651Z,100446.38
2022-08-04T06:08:18.127Z,100450.97
2022-08-04T06:10:46.219Z,100450.38
2022-08-04T06:13:47.930Z,100442.53
2022-08-04T06:16:02.283Z,100443.66
2022-08-04T06:18:42.180Z,100440.53
2022-08-04T06:21:18.963Z,100441.63
2022-08-04T06:23:53.675Z,100436.84
2022-08-04T06:26:28.764Z,100439.69
2022-08-04T06:28:56.366Z,100442.47
2022-08-04T06:32:27.708Z,100433.22
2022-08-04T06:34:30.180Z,100437.72
2022-08-04T06:36:57.376Z,100432.72
2022-08-04T06:39:25.162Z,100441.72
2022-08-04T06:41:55.313Z,100441.91
2022-08-04T06:44:40.596Z,100438.66
2022-08-04T06:47:07.370Z,100428.19
2022-08-04T06:51:23.476Z,100430.22
2022-08-04T06:52:21.791Z,100426.97
2022-08-04T06:54:49.050Z,100421.00
2022-08-04T06:57:23.055Z,100427.44
2022-08-04T06:59:57.257Z,100422.44
2022-08-04T07:02:26.775Z,100419.94
2022-08-04T07:04:53.370Z,100413.91
2022-08-04T07:07:20.258Z,100415.81
2022-08-04T07:10:03.527Z,100408.91
2022-08-04T07:12:30.248Z,100407.38
2022-08-04T07:14:57.440Z,100410.22
2022-08-04T07:17:24.335Z,100397.13
2022-08-04T07:19:56.244Z,100397.31
2022-08-04T07:22:25.800Z,100400.88
2022-08-04T07:24:56.463Z,100401.91
2022-08-04T07:27:48.235Z,100395.88
2022-08-04T07:30:11.020Z,100394.19
2022-08-04T07:32:38.037Z,100398.75
2022-08-04T07:35:06.453Z,100397.97
2022-08-04T07:37:39.270Z,100387.44
2022-08-04T07:40:07.551Z,100394.59
2022-08-04T07:42:34.137Z,100391.09
2022-08-04T07:45:00.706Z,100395.59
2022-08-04T07:47:27.548Z,100394.75
2022-08-04T07:49:57.548Z,100393.03
2022-08-04T07:52:25.798Z,100392.16
2022-08-04T07:54:52.942Z,100392.19
2022-08-04T07:57:39.736Z,100394.84
2022-08-04T08:00:08.239Z,100391.31
2022-08-04T08:02:35.622Z,100389.56
2022-08-04T08:05:02.551Z,100382.44
2022-08-04T08:07:28.981Z,100382.47
2022-08-04T08:09:55.398Z,100386.88
2022-08-04T08:12:36.468Z,100381.53
2022-08-04T08:15:15.838Z,100381.47
2022-08-04T08:17:57.710Z,100383.09
2022-08-04T08:20:29.581Z,100382.19
2022-08-04T08:22:56.480Z,100380.38
2022-08-04T08:25:22.921Z,100378.53
2022-08-04T08:27:56.395Z,100373.97
2022-08-04T08:30:23.869Z,100382.50
2022-08-04T08:32:50.667Z,100375.16
2022-08-04T08:35:17.598Z,100380.28
2022-08-04T08:37:56.259Z,100375.72
2022-08-04T08:40:41.079Z,100371.03
2022-08-04T08:44:06.226Z,100373.38
2022-08-04T08:46:48.964Z,100368.81
2022-08-04T08:50:00.416Z,100371.16
2022-08-04T08:53:01.680Z,100372.88
2022-08-04T08:56:02.734Z,100370.84
2022-08-04T08:58:35.688Z,100366.28
2022-08-04T09:01:13.337Z,100364.03
2022-08-04T09:03:58.610Z,100360.06
2022-08-04T09:06:47.964Z,100363.16
2022-08-04T09:09:30.956Z,100365.25
2022-08-04T09:12:06.063Z,100354.28
2022-08-04T09:14:41.983Z,100364.75
2022-08-04T09:17:18.544Z,100362.41
2022-08-04T09:19:52.321Z,100356.97
2022-08-04T09:22:24.345Z,100355.94
2022-08-04T09:25:13.819Z,100353.22
2022-08-04T09:27:46.211Z,100355.38
2022-08-04T09:30:14.239Z,100350.56
2022-08-04T09:32:41.372Z,100358.06
2022-08-04T09:35:19.977Z,100348.53
2022-08-04T09:38:12.489Z,100350.22
2022-08-04T09:41:19.764Z,100347.53
2022-08-04T09:44:52.325Z,100334.94
2022-08-04T09:47:24.806Z,100338.84
2022-08-04T09:50:22.022Z,100343.41
2022-08-04T09:53:07.239Z,100340.16
2022-08-04T09:55:53.610Z,100335.25
2022-08-04T09:58:39.312Z,100340.78
2022-08-04T10:01:21.058Z,100336.50
2022-08-04T10:03:51.600Z,100342.88
2022-08-04T10:06:42.933Z,100342.63
2022-08-04T10:09:12.239Z,100345.63
2022-08-04T10:11:56.210Z,100340.31
2022-08-04T10:14:49.040Z,100345.00
2022-08-04T10:17:55.020Z,100339.63
2022-08-04T10:20:45.587Z,100345.16
2022-08-04T10:23:56.299Z,100338.22
2022-08-04T10:26:32.075Z,100344.31
2022-08-04T10:29:03.571Z,100341.38
2022-08-04T10:31:36.530Z,100344.19
2022-08-04T10:34:11.837Z,100348.53
2022-08-04T10:36:47.123Z,100341.44
2022-08-04T10:39:42.631Z,100350.34
2022-08-04T10:42:25.398Z,100349.41
2022-08-04T10:45:23.762Z,100350.16
2022-08-04T10:48:10.732Z,100350.63
2022-08-04T10:50:40.496Z,100345.63
2022-08-04T10:53:13.928Z,100344.38
2022-08-04T10:56:07.111Z,100348.63
2022-08-04T10:58:47.414Z,100339.34
2022-08-04T11:02:01.086Z,100332.31
2022-08-04T11:04:27.553Z,100340.06
2022-08-04T11:06:55.464Z,100345.47
2022-08-04T11:09:22.614Z,100350.28
2022-08-04T11:12:01.116Z,100373.03
2022-08-04T11:14:33.966Z,100368.13
2022-08-04T11:17:07.440Z,100362.59
2022-08-04T11:20:32.088Z,100370.69
2022-08-04T11:23:20.426Z,100378.94
2022-08-04T11:25:56.425Z,100379.28
2022-08-04T11:28:39.478Z,100380.69
2022-08-04T11:31:11.543Z,100383.66
2022-08-04T11:33:48.094Z,100392.75
2022-08-04T11:36:35.868Z,100378.72
2022-08-04T11:39:11.251Z,100385.34
2022-08-04T11:41:42.425Z,100386.34
2022-08-04T11:44:12.898Z,100381.97
2022-08-04T11:46:48.344Z,100394.81
2022-08-04T11:49:57.041Z,100391.03
2022-08-04T11:52:20.096Z,100397.03
2022-08-04T11:54:52.473Z,100403.41
2022-08-04T11:57:21.162Z,100406.78
2022-08-04T11:59:49.013Z,100403.44
2022-08-04T12:02:30.202Z,100411.03
2022-08-04T12:04:59.507Z,100412.38
2022-08-04T12:07:41.897Z,100418.34
2022-08-04T12:10:41.097Z,100422.47
2022-08-04T12:13:40.747Z,100431.09
2022-08-04T12:16:18.560Z,100431.47
2022-08-04T12:18:56.446Z,100430.03
2022-08-04T12:21:33.874Z,100427.59
2022-08-04T12:24:15.427Z,100435.66
2022-08-04T12:26:47.139Z,100430.25
2022-08-04T12:29:15.155Z,100435.91
2022-08-04T12:31:51.808Z,100440.13
2022-08-04T12:34:34.528Z,100427.56
2022-08-04T12:37:10.226Z,100432.63
2022-08-04T12:40:27.350Z,100429.50
2022-08-04T12:42:33.128Z,100424.31
2022-08-04T12:45:05.894Z,100427.09
2022-08-04T12:47:32.450Z,100415.38
2022-08-04T12:50:03.874Z,100434.28
2022-08-04T12:53:01.136Z,100442.13
2022-08-04T12:55:29.985Z,100428.22
2022-08-04T12:57:56.658Z,100432.63
2022-08-04T13:00:29.785Z,100434.91
2022-08-04T13:03:09.802Z,100432.09
2022-08-04T13:05:39.388Z,100431.19
2022-08-04T13:08:06.436Z,100431.78
2022-08-04T13:10:37.644Z,100438.13
2022-08-04T13:13:04.424Z,100433.00
2022-08-04T13:15:33.467Z,100437.06
2022-08-04T13:18:15.534Z,100442.16
2022-08-04T13:20:43.656Z,100436.66
2022-08-04T13:23:12.327Z,100435.09
2022-08-04T13:26:44.616Z,100434.78
2022-08-04T13:28:32.225Z,100438.53
2022-08-04T13:31:05.164Z,100446.53
2022-08-04T13:33:38.372Z,100448.38
2022-08-04T13:36:07.762Z,100445.34
2022-08-04T13:38:36.709Z,100426.47
2022-08-04T13:41:05.100Z,100438.28
2022-08-04T13:44:18.252Z,100437.81
2022-08-04T13:46:50.869Z,100447.53
2022-08-04T13:49:48.527Z,100443.31
2022-08-04T13:52:10.681Z,100452.16
2022-08-04T13:54:42.587Z,100451.84
2022-08-04T13:57:13.514Z,100441.09
2022-08-04T13:59:44.503Z,100446.09
2022-08-04T14:02:26.530Z,100447.91
2022-08-04T14:04:57.174Z,100441.41
2022-08-04T14:07:25.616Z,100444.78
2022-08-04T14:10:02.516Z,100441.38
2022-08-04T14:12:38.833Z,100433.56
2022-08-04T14:15:54.720Z,100440.81
2022-08-04T14:18:34.723Z,100438.84
2022-08-04T14:21:10.768Z,100434.44
2022-08-04T14:23:46.953Z,100438.78
2022-08-04T14:26:18.922Z,100433.13
2022-08-04T14:29:28.723Z,100435.31
2022-08-04T14:31:32.388Z,100429.81
2022-08-04T14:34:03.894Z,100425.59
2022-08-04T14:37:04.615Z,100417.78
2022-08-04T14:40:19.400Z,100426.41
2022-08-04T14:42:42.003Z,100424.88
2022-08-04T14:45:08.980Z,100419.63
2022-08-04T14:47:52.270Z,100407.88
2022-08-04T14:50:20.033Z,100410.66
2022-08-04T14:52:46.468Z,100413.84
2022-08-04T14:55:23.879Z,100408.19
2022-08-04T14:58:34.215Z,100417.53
2022-08-04T15:00:37.873Z,100420.59
2022-08-04T15:03:08.491Z,100420.22
2022-08-04T15:06:01.818Z,100418.94
2022-08-04T15:08:31.170Z,100421.09
2022-08-04T15:11:02.722Z,100421.16
2022-08-04T15:13:32.771Z,100416.84
2022-08-04T15:16:06.361Z,100410.59
2022-08-04T15:18:35.841Z,100405.63
2022-08-04T15:21:02.826Z,100402.19
2022-08-04T15:23:38.954Z,100402.47
2022-08-04T15:26:09.116Z,100403.41
2022-08-04T15:28:37.153Z,100400.88
2022-08-04T15:31:04.709Z,100402.56
2022-08-04T15:33:39.770Z,100404.31
2022-08-04T15:36:13.217Z,100396.31
2022-08-04T15:38:50.363Z,100404.38
2022-08-04T15:41:35.549Z,100403.56
2022-08-04T15:44:28.795Z,100406.13
2022-08-04T15:47:04.309Z,100400.69
2022-08-04T15:49:30.845Z,100391.97
2022-08-04T15:52:01.736Z,100396.38
2022-08-04T15:54:32.779Z,100392.84
2022-08-04T15:57:02.052Z,100399.16
2022-08-04T16:00:09.950Z,100405.66
2022-08-04T16:02:43.516Z,100404.84
2022-08-04T16:05:17.254Z,100412.00
2022-08-04T16:07:59.822Z,100419.97
2022-08-04T16:10:35.137Z,100421.63
2022-08-04T16:13:14.520Z,100432.50
2022-08-04T16:15:55.268Z,100422.69
2022-08-04T16:18:30.517Z,100433.25
2022-08-04T16:20:59.439Z,100429.75
2022-08-04T16:23:54.132Z,100428.06
2022-08-04T16:26:36.714Z,100430.72
2022-08-04T16:29:40.259Z,100427.13
2022-08-04T16:32:12.925Z,100430.91
2022-08-04T16:35:05.215Z,100428.19
2022-08-04T16:37:38.776Z,100430.91
2022-08-04T16:40:39.197Z,100429.16
2022-08-04T16:43:16.923Z,100429.22
2022-08-04T16:45:58.633Z,100428.31
2022-08-04T16:48:27.690Z,100436.34
2022-08-04T16:51:07.922Z,100431.91
2022-08-04T16:54:02.962Z,100424.84
2022-08-04T16:56:32.856Z,100427.44
2022-08-04T16:59:05.848Z,100427.38
2022-08-04T17:01:34.388Z,100423.81
2022-08-04T17:04:05.062Z,100430.81
2022-08-04T17:06:35.929Z,100425.31
2022-08-04T17:09:13.440Z,100418.09
2022-08-04T17:11:41.004Z,100426.13
2022-08-04T17:14:08.003Z,100429.00
2022-08-04T17:16:39.950Z,100423.59
2022-08-04T17:19:19.792Z,100433.16
2022-08-04T17:21:47.740Z,100426.84
2022-08-04T17:24:17.767Z,100434.88
2022-08-04T17:26:53.756Z,100435.25
2022-08-04T17:29:22.424Z,100426.41
2022-08-04T17:31:48.940Z,100420.03
2022-08-04T17:34:21.178Z,100422.78
2022-08-04T17:36:48.265Z,100428.16
2022-08-04T17:39:17.689Z,100442.31
2022-08-04T17:41:49.020Z,100443.19
2022-08-04T17:44:15.753Z,100440.66
2022-08-04T17:46:48.240Z,100441.56
2022-08-04T17:49:16.811Z,100445.16
2022-08-04T17:54:39.418Z,100448.66
2022-08-04T17:57:20.042Z,100454.03
2022-08-04T17:59:57.549Z,100457.66
2022-08-04T18:02:31.779Z,100468.41
2022-08-04T18:05:07.784Z,100470.16
2022-08-04T18:08:41.355Z,100464.88
2022-08-04T18:10:55.844Z,100474.63
2022-08-04T18:13:27.690Z,100479.97
2022-08-04T18:16:02.455Z,100482.59
2022-08-04T18:18:29.542Z,100474.56
2022-08-04T18:20:56.203Z,100487.88
2022-08-04T18:23:31.879Z,100491.38
2022-08-04T18:28:46.200Z,100504.63
2022-08-04T18:31:13.118Z,100507.28
2022-08-04T18:33:43.068Z,100504.59
2022-08-04T18:36:34.146Z,100503.63
2022-08-04T18:39:12.133Z,100504.47
2022-08-04T18:42:03.682Z,100501.72
2022-08-04T18:44:31.855Z,100504.31
2022-08-04T18:47:22.512Z,100499.84
2022-08-04T18:50:59.844Z,100494.53
2022-08-04T18:52:32.386Z,100494.31
2022-08-04T18:55:01.956Z,100501.38
2022-08-04T18:57:58.768Z,100503.00
2022-08-04T19:00:16.370Z,100508.31
2022-08-04T19:02:46.386Z,100503.97
2022-08-04T19:05:17.043Z,100509.06
2022-08-04T19:08:11.206Z,100505.53
2022-08-04T19:10:31.230Z,100513.38
2022-08-04T19:12:58.749Z,100519.53
2022-08-04T19:15:34.002Z,100518.66
2022-08-04T19:18:01.728Z,100526.53
2022-08-04T19:20:29.606Z,100520.13
2022-08-04T19:24:27.076Z,100518.34
2022-08-04T19:26:01.656Z,100525.41
2022-08-04T19:28:31.664Z,100531.34
2022-08-04T19:31:00.598Z,100525.94
2022-08-04T19:33:30.446Z,100528.75
2022-08-04T19:36:13.746Z,100522.47
2022-08-04T19:38:43.956Z,100516.19
2022-08-04T19:41:14.262Z,100522.41
2022-08-04T19:43:43.858Z,100516.97
2022-08-04T19:46:10.753Z,100524.81
2022-08-04T19:48:39.117Z,100527.34
2022-08-04T19:51:05.519Z,100526.50
2022-08-04T19:53:37.306Z,100532.75
2022-08-04T19:56:04.999Z,100529.03
2022-08-04T19:58:31.451Z,100538.59
2022-08-04T20:00:57.842Z,100547.34
2022-08-04T20:04:09.594Z,100548.97
2022-08-04T20:06:10.742Z,100544.59
2022-08-04T20:08:37.164Z,100556.97
2022-08-04T20:11:03.721Z,100551.81
2022-08-04T20:13:36.959Z,100563.00
2022-08-04T20:16:04.501Z,100567.47
2022-08-04T20:18:35.034Z,100566.34
2022-08-04T20:21:03.411Z,100567.28
2022-08-04T20:23:48.739Z,100568.97
2022-08-04T20:26:16.512Z,100567.06
2022-08-04T20:28:43.005Z,100571.38
2022-08-04T20:31:18.459Z,100574.91
2022-08-04T20:33:49.173Z,100580.34
2022-08-04T20:36:20.099Z,100570.56
2022-08-04T20:38:51.664Z,100572.28
2022-08-04T20:41:19.089Z,100565.91
2022-08-04T20:43:46.660Z,100577.44
2022-08-04T20:46:25.581Z,100575.53
2022-08-04T20:48:56.830Z,100587.84
2022-08-04T20:51:25.908Z,100583.19
2022-08-04T20:54:00.258Z,100595.44
2022-08-04T20:56:31.250Z,100607.00
2022-08-04T20:58:59.470Z,100613.88
2022-08-04T21:01:29.631Z,100608.63
2022-08-04T21:04:27.673Z,100606.88
2022-08-04T21:06:55.043Z,100606.56
2022-08-04T21:09:37.280Z,100597.53
2022-08-04T21:12:08.653Z,100603.69
2022-08-04T21:14:35.082Z,100614.25
2022-08-04T21:17:02.943Z,100617.09
2022-08-04T21:19:31.517Z,100620.63
2022-08-04T21:21:58.109Z,100615.28
2022-08-04T21:24:26.321Z,100618.78
2022-08-04T21:26:56.686Z,100622.78
2022-08-04T21:29:24.464Z,100619.59
2022-08-04T21:32:07.755Z,100632.00
2022-08-04T21:34:39.494Z,100631.09
2022-08-04T21:37:07.039Z,100647.88
2022-08-04T21:39:50.514Z,100658.66
2022-08-04T21:42:28.920Z,100670.94
2022-08-04T21:44:57.182Z,100673.22
2022-08-04T21:47:24.030Z,100670.50
2022-08-04T21:49:56.349Z,100679.25
2022-08-04T21:52:23.605Z,100673.22
2022-08-04T21:54:54.654Z,100682.03
2022-08-04T21:57:24.879Z,100682.81
2022-08-04T21:59:52.184Z,100691.75
2022-08-04T22:02:18.701Z,100693.53
2022-08-04T22:04:45.203Z,100696.88
2022-08-04T22:07:12.005Z,100715.25
2022-08-04T22:09:41.553Z,100717.09
2022-08-04T22:12:12.500Z,100709.28
2022-08-04T22:14:39.332Z,100713.44
2022-08-04T22:17:05.762Z,100716.94
2022-08-04T22:19:40.363Z,100722.28
2022-08-04T22:22:25.054Z,100719.63
2022-08-04T22:24:53.680Z,100732.69
2022-08-04T22:27:38.618Z,100731.59
2022-08-04T22:30:09.392Z,100739.34
2022-08-04T22:32:43.478Z,100733.22
2022-08-04T22:35:36.419Z,100736.59
2022-08-04T22:38:06.200Z,100720.66
2022-08-04T22:40:35.799Z,100713.53
2022-08-04T22:43:03.283Z,100711.78
2022-08-04T22:45:44.747Z,100715.19
2022-08-04T22:48:11.385Z,100731.13
2022-08-04T22:50:37.761Z,100721.03
2022-08-04T22:53:04.183Z,100708.84
2022-08-04T22:56:06.961Z,100701.69
2022-08-04T22:58:17.873Z,100709.31
2022-08-04T23:00:44.465Z,100711.31
2022-08-04T23:03:37.177Z,100718.78
2022-08-04T23:06:07.008Z,100722.03
2022-08-04T23:08:37.950Z,100737.38
2022-08-04T23:11:07.725Z,100743.66
2022-08-04T23:13:34.117Z,100740.94
2022-08-04T23:16:04.602Z,100733.88
2022-08-04T23:18:36.114Z,100723.50
2022-08-04T23:21:07.614Z,100727.44
2022-08-04T23:23:34.648Z,100721.78
2022-08-04T23:26:07.283Z,100710.44
2022-08-04T23:28:35.131Z,100690.09
2022-08-04T23:31:02.956Z,100680.38
2022-08-04T23:33:50.652Z,100675.09
2022-08-04T23:36:15.830Z,100700.66
2022-08-04T23:38:42.339Z,100712.22
2022-08-04T23:41:17.236Z,100689.91
2022-08-04T23:43:54.973Z,100640.69
2022-08-04T23:46:22.072Z,100565.00
2022-08-04T23:48:48.792Z,100532.22
2022-08-04T23:51:15.724Z,100527.19
2022-08-04T23:54:01.621Z,100553.44
2022-08-04T23:56:29.998Z,100589.97
2022-08-04T23:58:56.424Z,100587.53
